createdAt,value
2018-12-14T00:01:36.086Z,30.95
2018-12-14T00:04:05.865Z,31.87
2018-12-14T00:06:34.220Z,31.52
2018-12-14T00:09:02.476Z,36.70
2018-12-14T00:11:34.527Z,31.73
2018-12-14T00:14:02.865Z,31.82
2018-12-14T00:16:31.078Z,32.45
2018-12-14T00:18:59.282Z,31.93
2018-12-14T00:21:40.067Z,34.53
2018-12-14T00:24:08.294Z,30.70
2018-12-14T00:26:36.563Z,35.33
2018-12-14T00:29:04.814Z,32.10
2018-12-14T00:31:36.123Z,36.88
2018-12-14T00:34:04.373Z,32.73
2018-12-14T00:36:32.636Z,35.00
2018-12-14T00:39:00.888Z,36.00
2018-12-14T00:41:32.005Z,33.60
2018-12-14T00:44:00.261Z,33.42
2018-12-14T00:46:28.485Z,34.55
2018-12-14T00:48:56.691Z,32.67
2018-12-14T00:51:28.764Z,34.80
2018-12-14T00:53:56.960Z,40.05
2018-12-14T00:56:25.124Z,40.40
2018-12-14T00:58:53.392Z,37.35
2018-12-14T01:01:25.107Z,36.48
2018-12-14T01:03:53.327Z,43.60
2018-12-14T01:06:21.494Z,37.37
2018-12-14T01:08:49.745Z,47.33
2018-12-14T01:11:21.482Z,42.95
2018-12-14T01:13:49.674Z,43.78
2018-12-14T01:16:17.947Z,43.33
2018-12-14T01:18:46.177Z,40.60
2018-12-14T01:21:18.014Z,42.63
2018-12-14T01:23:46.173Z,46.42
2018-12-14T01:26:14.356Z,44.77
2018-12-14T01:28:42.584Z,40.98
2018-12-14T01:31:14.441Z,40.88
2018-12-14T01:33:42.643Z,41.98
2018-12-14T01:36:11.028Z,48.48
2018-12-14T01:38:39.243Z,45.70
2018-12-14T01:41:10.600Z,45.28
2018-12-14T01:43:38.816Z,38.88
2018-12-14T01:46:07.048Z,43.70
2018-12-14T01:48:35.411Z,47.17
2018-12-14T01:51:07.562Z,44.33
2018-12-14T01:53:35.782Z,47.45
2018-12-14T01:56:04.014Z,44.23
2018-12-14T01:58:32.183Z,43.33
2018-12-14T02:01:03.577Z,42.93
2018-12-14T02:03:31.790Z,41.70
2018-12-14T02:06:00.333Z,43.55
2018-12-14T02:08:28.539Z,43.30
2018-12-14T02:11:00.318Z,41.98
2018-12-14T02:13:28.527Z,41.25
2018-12-14T02:15:56.760Z,44.70
2018-12-14T02:18:24.929Z,43.80
2018-12-14T02:20:56.795Z,46.55
2018-12-14T02:23:25.038Z,46.88
2018-12-14T02:25:53.255Z,43.50
2018-12-14T02:28:21.452Z,46.48
2018-12-14T02:30:53.273Z,46.20
2018-12-14T02:33:21.508Z,43.90
2018-12-14T02:35:49.724Z,43.33
2018-12-14T02:38:17.901Z,45.93
2018-12-14T02:40:49.835Z,43.90
2018-12-14T02:43:19.000Z,43.80
2018-12-14T02:45:47.278Z,44.60
2018-12-14T02:48:15.502Z,43.78
2018-12-14T02:50:47.240Z,43.00
2018-12-14T02:53:16.199Z,47.20
2018-12-14T02:55:44.411Z,41.63
2018-12-14T02:58:12.661Z,42.93
2018-12-14T03:00:44.609Z,45.60
2018-12-14T03:03:12.817Z,45.58
2018-12-14T03:05:41.033Z,43.25
2018-12-14T03:08:09.234Z,44.95
2018-12-14T03:10:43.937Z,42.27
2018-12-14T03:13:12.097Z,40.88
2018-12-14T03:15:40.313Z,40.20
2018-12-14T03:18:08.512Z,46.23
2018-12-14T03:20:39.942Z,44.15
2018-12-14T03:23:08.171Z,47.73
2018-12-14T03:25:36.391Z,43.87
2018-12-14T03:28:04.652Z,41.85
2018-12-14T03:30:36.473Z,44.35
2018-12-14T03:33:04.713Z,46.70
2018-12-14T03:35:32.969Z,45.20
2018-12-14T03:38:01.438Z,46.95
2018-12-14T03:40:32.816Z,44.35
2018-12-14T03:43:01.164Z,43.98
2018-12-14T03:45:29.391Z,44.95
2018-12-14T03:47:57.592Z,39.38
2018-12-14T03:50:29.155Z,41.73
2018-12-14T03:52:57.392Z,45.00
2018-12-14T03:55:25.621Z,45.00
2018-12-14T03:57:54.521Z,43.33
2018-12-14T04:00:28.517Z,41.65
2018-12-14T04:02:56.946Z,41.83
2018-12-14T04:05:25.349Z,41.33
2018-12-14T04:07:53.534Z,41.63
2018-12-14T04:10:25.154Z,42.65
2018-12-14T04:12:53.367Z,42.50
2018-12-14T04:15:21.567Z,44.40
2018-12-14T04:17:50.305Z,43.92
2018-12-14T04:20:21.493Z,44.60
2018-12-14T04:22:49.712Z,40.00
2018-12-14T04:25:17.906Z,40.10
2018-12-14T04:27:46.131Z,37.70
2018-12-14T04:30:18.165Z,37.85
2018-12-14T04:32:46.465Z,43.87
2018-12-14T04:35:14.662Z,40.70
2018-12-14T04:37:42.919Z,44.38
2018-12-14T04:40:14.391Z,40.40
2018-12-14T04:42:48.866Z,42.95
2018-12-14T04:45:12.794Z,38.40
2018-12-14T04:47:41.054Z,39.15
2018-12-14T04:50:12.830Z,41.13
2018-12-14T04:52:41.042Z,34.35
2018-12-14T04:55:09.287Z,38.53
2018-12-14T04:57:37.472Z,40.03
2018-12-14T05:00:09.330Z,36.95
2018-12-14T05:02:37.591Z,41.37
2018-12-14T05:05:06.236Z,33.88
2018-12-14T05:07:34.588Z,39.00
2018-12-14T05:10:06.339Z,35.85
2018-12-14T05:12:34.588Z,36.53
2018-12-14T05:15:02.833Z,36.77
2018-12-14T05:17:31.054Z,38.42
2018-12-14T05:19:59.261Z,33.60
2018-12-14T05:22:27.501Z,38.25
2018-12-14T05:24:55.699Z,36.05
2018-12-14T05:27:23.972Z,35.48
2018-12-14T05:30:02.361Z,40.83
2018-12-14T05:32:30.598Z,33.50
2018-12-14T05:34:58.783Z,36.55
2018-12-14T05:37:27.013Z,37.38
2018-12-14T05:39:56.317Z,33.02
2018-12-14T05:42:24.554Z,38.23
2018-12-14T05:44:52.770Z,41.55
2018-12-14T05:47:21.013Z,32.30
2018-12-14T05:49:49.271Z,36.23
2018-12-14T05:52:17.532Z,35.15
2018-12-14T05:54:45.725Z,39.67
2018-12-14T05:57:13.995Z,40.83
2018-12-14T05:59:42.336Z,33.05
2018-12-14T06:02:10.545Z,35.80
2018-12-14T06:04:38.714Z,38.53
2018-12-14T06:07:06.906Z,38.75
2018-12-14T06:09:35.136Z,44.13
2018-12-14T06:12:07.210Z,35.95
2018-12-14T06:14:35.458Z,41.65
2018-12-14T06:17:03.666Z,41.42
2018-12-14T06:19:31.833Z,40.75
2018-12-14T06:22:03.323Z,39.38
2018-12-14T06:24:31.534Z,38.40
2018-12-14T06:26:59.749Z,40.88
2018-12-14T06:29:28.007Z,41.55
2018-12-14T06:32:04.406Z,39.75
2018-12-14T06:34:32.745Z,40.30
2018-12-14T06:37:01.019Z,42.50
2018-12-14T06:39:29.308Z,39.88
2018-12-14T06:42:00.763Z,41.18
2018-12-14T06:44:28.962Z,40.17
2018-12-14T06:46:57.170Z,46.08
2018-12-14T06:49:25.363Z,41.53
2018-12-14T06:51:56.877Z,41.85
2018-12-14T06:54:25.301Z,44.08
2018-12-14T06:56:53.554Z,43.95
2018-12-14T06:59:21.767Z,42.10
2018-12-14T07:01:52.879Z,43.50
2018-12-14T07:04:21.094Z,43.85
2018-12-14T07:06:49.288Z,45.55
2018-12-14T07:09:17.500Z,46.33
2018-12-14T07:11:49.265Z,41.55
2018-12-14T07:14:17.500Z,44.75
2018-12-14T07:16:45.725Z,41.92
2018-12-14T07:19:14.039Z,43.83
2018-12-14T07:21:48.503Z,41.45
2018-12-14T07:24:16.919Z,41.40
2018-12-14T07:26:45.259Z,44.10
2018-12-14T07:29:13.615Z,41.63
2018-12-14T07:31:45.185Z,42.03
2018-12-14T07:34:13.378Z,40.80
2018-12-14T07:36:41.615Z,42.10
2018-12-14T07:39:09.769Z,43.25
2018-12-14T07:41:41.160Z,39.60
2018-12-14T07:44:09.403Z,40.98
2018-12-14T07:46:37.613Z,42.08
2018-12-14T07:49:05.867Z,42.53
2018-12-14T07:51:37.567Z,43.23
2018-12-14T07:54:08.814Z,46.53
2018-12-14T07:56:37.073Z,40.52
2018-12-14T07:59:05.404Z,53.42
2018-12-14T08:01:37.398Z,45.75
2018-12-14T08:04:05.593Z,43.35
2018-12-14T08:06:33.858Z,42.62
2018-12-14T08:09:02.186Z,45.38
2018-12-14T08:11:34.071Z,40.90
2018-12-14T08:14:02.371Z,42.05
2018-12-14T08:16:30.532Z,45.70
2018-12-14T08:18:58.747Z,42.93
2018-12-14T08:21:30.015Z,42.40
2018-12-14T08:23:58.222Z,48.55
2018-12-14T08:26:26.571Z,45.28
2018-12-14T08:28:54.800Z,44.70
2018-12-14T08:31:26.228Z,43.60
2018-12-14T08:33:54.528Z,45.33
2018-12-14T08:36:22.747Z,46.83
2018-12-14T08:38:50.902Z,47.80
2018-12-14T08:41:22.200Z,44.35
2018-12-14T08:43:50.418Z,43.58
2018-12-14T08:46:18.634Z,45.95
2018-12-14T08:48:46.839Z,42.30
2018-12-14T08:51:18.526Z,40.67
2018-12-14T08:53:46.741Z,44.83
2018-12-14T08:56:14.953Z,44.42
2018-12-14T08:58:43.183Z,41.65
2018-12-14T09:01:15.035Z,49.73
2018-12-14T09:03:43.241Z,44.75
2018-12-14T09:06:11.425Z,44.73
2018-12-14T09:08:39.675Z,41.05
2018-12-14T09:11:11.628Z,41.45
2018-12-14T09:13:39.852Z,42.25
2018-12-14T09:16:08.013Z,43.00
2018-12-14T09:18:36.275Z,43.30
2018-12-14T09:21:08.379Z,46.30
2018-12-14T09:23:36.617Z,40.33
2018-12-14T09:26:05.086Z,43.03
2018-12-14T09:28:34.324Z,43.92
2018-12-14T09:31:06.216Z,47.33
2018-12-14T09:33:34.387Z,42.38
2018-12-14T09:36:02.700Z,43.13
2018-12-14T09:38:30.860Z,42.20
2018-12-14T09:41:02.603Z,47.30
2018-12-14T09:43:30.841Z,40.55
2018-12-14T09:45:59.076Z,41.23
2018-12-14T09:48:27.238Z,44.27
2018-12-14T09:50:59.232Z,40.83
2018-12-14T09:53:27.480Z,42.05
2018-12-14T09:55:55.666Z,40.45
2018-12-14T09:58:23.832Z,38.25
2018-12-14T10:00:55.770Z,40.00
2018-12-14T10:03:24.043Z,41.30
2018-12-14T10:05:52.301Z,35.58
2018-12-14T10:08:20.518Z,42.35
2018-12-14T10:10:52.657Z,40.63
2018-12-14T10:13:21.091Z,43.02
2018-12-14T10:15:49.302Z,34.53
2018-12-14T10:18:17.641Z,41.45
2018-12-14T10:20:49.230Z,39.20
2018-12-14T10:23:17.434Z,37.90
2018-12-14T10:25:45.669Z,36.83
2018-12-14T10:28:13.837Z,35.83
2018-12-14T10:30:45.629Z,37.00
2018-12-14T10:33:13.790Z,36.53
2018-12-14T10:35:42.018Z,41.42
2018-12-14T10:38:10.210Z,34.83
2018-12-14T10:40:41.813Z,35.17
2018-12-14T10:43:10.012Z,36.80
2018-12-14T10:45:38.360Z,31.05
2018-12-14T10:48:06.558Z,35.23
2018-12-14T10:50:39.629Z,43.33
2018-12-14T10:53:10.015Z,37.15
2018-12-14T10:55:38.226Z,39.70
2018-12-14T10:58:06.499Z,39.58
2018-12-14T11:00:44.015Z,37.85
2018-12-14T11:03:12.228Z,34.77
2018-12-14T11:05:40.465Z,39.48
2018-12-14T11:08:08.704Z,37.67
2018-12-14T11:10:40.052Z,41.25
2018-12-14T11:13:08.257Z,38.23
2018-12-14T11:15:36.484Z,35.93
2018-12-14T11:18:05.989Z,36.05
2018-12-14T11:20:37.683Z,38.02
2018-12-14T11:23:05.890Z,33.13
2018-12-14T11:25:34.501Z,37.43
2018-12-14T11:28:02.742Z,33.53
2018-12-14T11:30:33.916Z,38.73
2018-12-14T11:33:02.164Z,36.50
2018-12-14T11:35:30.398Z,35.80
2018-12-14T11:37:58.575Z,37.40
2018-12-14T11:40:29.841Z,33.30
2018-12-14T11:42:58.071Z,38.63
2018-12-14T11:45:26.240Z,31.02
2018-12-14T11:47:54.460Z,33.78
2018-12-14T11:50:26.426Z,27.77
2018-12-14T11:52:54.621Z,39.27
2018-12-14T11:55:22.831Z,47.65
2018-12-14T11:57:51.054Z,30.80
2018-12-14T12:00:22.672Z,29.02
2018-12-14T12:02:50.930Z,33.30
2018-12-14T12:05:19.141Z,33.92
2018-12-14T12:07:47.593Z,33.85
2018-12-14T12:10:19.502Z,31.77
2018-12-14T12:12:47.713Z,33.90
2018-12-14T12:15:15.911Z,30.95
2018-12-14T12:17:49.413Z,31.85
2018-12-14T12:20:21.427Z,32.98
2018-12-14T12:22:49.730Z,33.05
2018-12-14T12:25:18.026Z,32.40
2018-12-14T12:27:46.234Z,34.13
2018-12-14T12:30:17.770Z,32.53
2018-12-14T12:32:46.044Z,33.40
2018-12-14T12:35:14.282Z,37.50
2018-12-14T12:37:42.489Z,34.18
2018-12-14T12:40:13.841Z,36.38
2018-12-14T12:42:42.186Z,38.28
2018-12-14T12:45:10.423Z,37.73
2018-12-14T12:47:38.652Z,37.00
2018-12-14T12:50:10.157Z,34.57
2018-12-14T12:52:38.394Z,31.75
2018-12-14T12:55:06.642Z,41.02
2018-12-14T12:57:34.867Z,39.35
2018-12-14T13:00:03.339Z,36.17
2018-12-14T13:02:31.599Z,38.00
2018-12-14T13:04:59.826Z,42.60
2018-12-14T13:07:28.054Z,35.15
2018-12-14T13:09:56.229Z,35.65
2018-12-14T13:12:24.475Z,34.33
2018-12-14T13:14:52.684Z,32.58
2018-12-14T13:17:20.937Z,36.95
2018-12-14T13:19:55.362Z,36.58
2018-12-14T13:22:23.578Z,37.70
2018-12-14T13:24:51.733Z,38.98
2018-12-14T13:27:20.408Z,40.10
2018-12-14T13:29:48.816Z,41.68
2018-12-14T13:32:17.030Z,41.18
2018-12-14T13:34:45.258Z,38.50
2018-12-14T13:37:13.561Z,35.30
2018-12-14T13:39:41.782Z,39.42
2018-12-14T13:42:09.941Z,36.88
2018-12-14T13:44:38.211Z,39.80
2018-12-14T13:47:06.413Z,39.98
2018-12-14T13:49:34.650Z,39.70
2018-12-14T13:52:05.807Z,42.70
2018-12-14T13:54:34.039Z,40.55
2018-12-14T13:57:02.200Z,36.68
2018-12-14T13:59:30.401Z,39.30
2018-12-14T14:02:02.261Z,41.60
2018-12-14T14:04:30.458Z,42.20
2018-12-14T14:06:58.668Z,43.65
2018-12-14T14:09:26.867Z,41.70
2018-12-14T14:12:07.665Z,37.25
2018-12-14T14:14:54.732Z,40.17
2018-12-14T14:17:22.922Z,36.93
2018-12-14T14:19:51.400Z,41.05
2018-12-14T14:22:20.065Z,47.45
2018-12-14T14:24:48.340Z,38.00
2018-12-14T14:27:16.525Z,41.77
2018-12-14T14:29:44.742Z,43.92
2018-12-14T14:32:13.339Z,42.58
2018-12-14T14:37:15.961Z,44.23
2018-12-14T14:39:44.213Z,44.88
2018-12-14T14:42:12.559Z,43.85
2018-12-14T14:44:40.779Z,45.50
2018-12-14T14:47:08.999Z,45.92
2018-12-14T14:49:37.186Z,43.73
2018-12-14T14:52:09.032Z,45.83
2018-12-14T14:54:51.687Z,47.50
2018-12-14T14:57:19.855Z,42.30
2018-12-14T14:59:48.027Z,46.58
2018-12-14T15:02:16.253Z,47.23
2018-12-14T15:04:57.580Z,49.23
2018-12-14T15:07:25.753Z,42.70
2018-12-14T15:09:54.000Z,54.40
2018-12-14T15:12:22.207Z,46.28
2018-12-14T15:14:50.397Z,43.17
2018-12-14T15:17:19.496Z,45.85
2018-12-14T15:19:47.765Z,48.28
2018-12-14T15:22:15.980Z,45.48
2018-12-14T15:24:44.202Z,46.77
2018-12-14T15:27:12.365Z,47.80
2018-12-14T15:29:40.608Z,47.15
2018-12-14T15:32:09.081Z,48.65
2018-12-14T15:34:37.277Z,47.38
2018-12-14T15:37:05.513Z,47.62
2018-12-14T15:39:33.744Z,47.70
2018-12-14T15:42:04.902Z,51.53
2018-12-14T15:44:33.143Z,50.98
2018-12-14T15:47:01.387Z,48.70
2018-12-14T15:49:29.583Z,45.73
2018-12-14T15:52:04.354Z,52.23
2018-12-14T15:54:32.654Z,48.00
2018-12-14T15:57:00.813Z,49.98
2018-12-14T15:59:29.003Z,49.63
2018-12-14T16:02:01.043Z,50.90
2018-12-14T16:04:29.222Z,46.95
2018-12-14T16:06:57.494Z,49.90
2018-12-14T16:09:25.735Z,56.53
2018-12-14T16:11:57.013Z,51.60
2018-12-14T16:14:25.229Z,49.48
2018-12-14T16:16:53.430Z,52.55
2018-12-14T16:19:21.724Z,51.30
2018-12-14T16:22:02.831Z,55.95
2018-12-14T16:24:31.069Z,54.65
2018-12-14T16:26:59.322Z,64.12
2018-12-14T16:29:27.503Z,56.13
2018-12-14T16:31:59.072Z,56.00
2018-12-14T16:34:27.311Z,58.68
2018-12-14T16:36:55.496Z,51.30
2018-12-14T16:39:23.653Z,54.73
2018-12-14T16:41:55.421Z,53.85
2018-12-14T16:44:23.593Z,49.13
2018-12-14T16:46:51.795Z,50.75
2018-12-14T16:49:20.141Z,57.48
2018-12-14T16:51:51.838Z,51.50
2018-12-14T16:54:20.118Z,58.30
2018-12-14T16:56:48.336Z,56.18
2018-12-14T16:59:16.714Z,52.58
2018-12-14T17:01:48.832Z,57.23
2018-12-14T17:04:17.083Z,52.43
2018-12-14T17:06:45.318Z,56.35
2018-12-14T17:09:13.505Z,52.73
2018-12-14T17:11:44.927Z,59.77
2018-12-14T17:14:13.113Z,62.15
2018-12-14T17:16:54.288Z,57.17
2018-12-14T17:19:22.458Z,56.58
2018-12-14T17:21:53.733Z,57.10
2018-12-14T17:24:21.946Z,59.67
2018-12-14T17:26:50.243Z,54.83
2018-12-14T17:29:18.503Z,55.43
2018-12-14T17:31:50.492Z,59.85
2018-12-14T17:34:18.713Z,55.98
2018-12-14T17:36:47.017Z,63.63
2018-12-14T17:39:15.225Z,63.17
2018-12-14T17:41:49.822Z,60.92
2018-12-14T17:44:18.038Z,55.23
2018-12-14T17:46:46.431Z,68.25
2018-12-14T17:49:14.675Z,61.50
2018-12-14T17:51:46.018Z,66.25
2018-12-14T17:54:14.259Z,57.45
2018-12-14T17:56:42.441Z,61.05
2018-12-14T17:59:10.619Z,59.70
2018-12-14T18:01:42.274Z,55.85
2018-12-14T18:04:10.630Z,65.70
2018-12-14T18:06:38.898Z,66.80
2018-12-14T18:09:07.154Z,61.20
2018-12-14T18:11:38.291Z,59.00
2018-12-14T18:14:06.543Z,69.53
2018-12-14T18:16:34.807Z,71.17
2018-12-14T18:19:03.121Z,63.98
2018-12-14T18:21:34.354Z,61.50
2018-12-14T18:24:02.565Z,60.95
2018-12-14T18:26:30.833Z,67.53
2018-12-14T18:28:59.024Z,66.12
2018-12-14T18:31:33.371Z,64.82
2018-12-14T18:34:01.598Z,69.40
2018-12-14T18:36:29.924Z,70.32
2018-12-14T18:38:58.163Z,65.20
2018-12-14T18:44:23.170Z,67.05
2018-12-14T18:46:51.436Z,70.30
2018-12-14T18:49:19.627Z,63.35
2018-12-14T18:51:51.421Z,73.12
2018-12-14T18:54:19.642Z,69.20
2018-12-14T18:56:47.845Z,67.32
2018-12-14T18:59:16.042Z,66.28
2018-12-14T19:01:47.308Z,62.15
2018-12-14T19:04:15.497Z,69.03
2018-12-14T19:06:43.736Z,64.95
2018-12-14T19:09:12.016Z,63.80
2018-12-14T19:11:43.800Z,56.77
2018-12-14T19:14:12.026Z,64.17
2018-12-14T19:17:17.639Z,65.30
2018-12-14T19:19:45.850Z,61.63
2018-12-14T19:23:54.950Z,71.28
2018-12-14T19:26:23.137Z,64.05
2018-12-14T19:28:51.433Z,59.10
2018-12-14T19:31:32.435Z,63.87
2018-12-14T19:34:00.705Z,66.40
2018-12-14T19:36:28.938Z,67.72
2018-12-14T19:38:57.539Z,69.40
2018-12-14T19:41:39.120Z,75.10
2018-12-14T19:44:07.312Z,68.80
2018-12-14T19:46:35.599Z,69.60
2018-12-14T19:49:03.841Z,68.90
2018-12-14T19:51:45.818Z,69.42
2018-12-14T19:54:14.104Z,65.37
2018-12-14T19:56:42.678Z,66.42
2018-12-14T19:59:10.903Z,70.62
2018-12-14T20:04:36.070Z,66.87
2018-12-14T20:07:04.442Z,62.57
2018-12-14T20:12:29.044Z,66.20
2018-12-14T20:14:57.247Z,67.67
2018-12-14T20:17:25.441Z,65.10
2018-12-14T20:19:53.674Z,67.93
2018-12-14T20:22:21.935Z,57.93
2018-12-14T20:24:50.130Z,66.27
2018-12-14T20:27:18.342Z,67.37
2018-12-14T20:29:46.520Z,68.77
2018-12-14T20:32:14.726Z,64.53
2018-12-14T20:34:42.979Z,57.90
2018-12-14T20:37:11.212Z,67.03
2018-12-14T20:39:39.978Z,65.50
2018-12-14T20:42:08.171Z,64.97
2018-12-14T20:44:36.378Z,66.67
2018-12-14T20:47:04.633Z,62.33
2018-12-14T20:49:32.835Z,62.13
2018-12-14T20:52:13.515Z,70.28
2018-12-14T20:54:42.117Z,63.15
2018-12-14T20:57:17.105Z,75.08
2018-12-14T20:59:45.363Z,57.55
2018-12-14T21:02:13.600Z,63.95
2018-12-14T21:04:41.871Z,64.05
2018-12-14T21:07:10.104Z,66.02
2018-12-14T21:09:38.379Z,72.45
2018-12-14T21:12:06.605Z,65.83
2018-12-14T21:14:34.895Z,67.42
2018-12-14T21:17:03.154Z,67.37
2018-12-14T21:19:31.885Z,71.10
2018-12-14T21:24:51.785Z,68.47
2018-12-14T21:27:20.035Z,67.05
2018-12-14T21:29:48.263Z,67.03
2018-12-14T21:32:16.481Z,71.25
2018-12-14T21:34:44.662Z,63.80
2018-12-14T21:37:12.881Z,69.90
2018-12-14T21:39:41.225Z,61.10
2018-12-14T21:42:09.478Z,65.12
2018-12-14T21:44:38.150Z,64.62
2018-12-14T21:47:06.375Z,69.70
2018-12-14T21:49:34.750Z,64.77
2018-12-14T21:54:59.670Z,67.70
2018-12-14T21:57:27.874Z,61.40
2018-12-14T21:59:56.443Z,60.17
2018-12-14T22:02:24.679Z,67.92
2018-12-14T22:04:52.992Z,66.65
2018-12-14T22:07:24.084Z,62.70
2018-12-14T22:09:52.335Z,64.40
2018-12-14T22:12:41.772Z,65.35
2018-12-14T22:15:10.032Z,68.45
2018-12-14T22:17:38.263Z,64.82
2018-12-14T22:20:19.547Z,64.00
2018-12-14T22:22:47.718Z,58.00
2018-12-14T22:25:15.955Z,62.62
2018-12-14T22:27:44.125Z,60.60
2018-12-14T22:30:25.267Z,60.52
2018-12-14T22:32:55.817Z,60.83
2018-12-14T22:35:24.551Z,62.73
2018-12-14T22:37:52.795Z,74.20
2018-12-14T22:40:27.536Z,62.25
2018-12-14T22:42:56.231Z,56.50
2018-12-14T22:45:24.461Z,62.15
2018-12-14T22:47:52.637Z,59.85
2018-12-14T22:50:22.877Z,56.05
2018-12-14T22:52:52.614Z,57.85
2018-12-14T22:55:20.896Z,59.05
2018-12-14T22:57:49.126Z,60.55
2018-12-14T23:00:20.249Z,65.40
2018-12-14T23:02:48.739Z,61.08
2018-12-14T23:05:16.995Z,57.35
2018-12-14T23:07:45.294Z,62.93
2018-12-14T23:10:30.107Z,60.90
2018-12-14T23:12:58.376Z,56.63
2018-12-14T23:15:26.613Z,60.95
2018-12-14T23:18:07.454Z,58.08
2018-12-14T23:20:37.795Z,58.87
2018-12-14T23:23:05.988Z,55.20
2018-12-14T23:25:34.256Z,55.30
2018-12-14T23:28:02.486Z,56.70
2018-12-14T23:30:36.536Z,54.93
2018-12-14T23:33:04.786Z,55.83
2018-12-14T23:35:33.058Z,54.65
2018-12-14T23:38:01.276Z,55.67
2018-12-14T23:40:39.260Z,54.50
2018-12-14T23:43:07.484Z,54.77
2018-12-14T23:45:35.720Z,48.80
2018-12-14T23:48:04.617Z,52.70
2018-12-14T23:50:34.366Z,53.98
2018-12-14T23:53:02.667Z,58.55
2018-12-14T23:55:30.971Z,52.00
2018-12-14T23:57:59.195Z,51.10
